sensor_id;sensor_type;location;lat;lon;timestamp;pressure;altitude;pressure_sealevel;temperature
64960;BMP180;51487;52.266;10.542;2022-07-31T00:01:12;100802.00;;;17.80
64960;BMP180;51487;52.266;10.542;2022-07-31T00:03:39;100809.00;;;17.70
64960;BMP180;51487;52.266;10.542;2022-07-31T00:06:06;100809.00;;;17.70
64960;BMP180;51487;52.266;10.542;2022-07-31T00:08:33;100809.00;;;17.70
64960;BMP180;51487;52.266;10.542;2022-07-31T00:10:58;100818.00;;;17.70
64960;BMP180;51487;52.266;10.542;2022-07-31T00:13:24;100816.00;;;17.60
64960;BMP180;51487;52.266;10.542;2022-07-31T00:15:50;100808.00;;;17.50
64960;BMP180;51487;52.266;10.542;2022-07-31T00:18:15;100797.00;;;17.50
64960;BMP180;51487;52.266;10.542;2022-07-31T00:20:41;100809.00;;;17.40
64960;BMP180;51487;52.266;10.542;2022-07-31T00:23:10;100804.00;;;17.40
64960;BMP180;51487;52.266;10.542;2022-07-31T00:25:35;100804.00;;;17.40
64960;BMP180;51487;52.266;10.542;2022-07-31T00:28:01;100800.00;;;17.30
64960;BMP180;51487;52.266;10.542;2022-07-31T00:30:27;100793.00;;;17.30
64960;BMP180;51487;52.266;10.542;2022-07-31T00:32:53;100789.00;;;17.30
64960;BMP180;51487;52.266;10.542;2022-07-31T00:35:19;100792.00;;;17.20
64960;BMP180;51487;52.266;10.542;2022-07-31T00:37:45;100790.00;;;17.20
64960;BMP180;51487;52.266;10.542;2022-07-31T00:40:12;100788.00;;;17.20
64960;BMP180;51487;52.266;10.542;2022-07-31T00:42:40;100798.00;;;17.20
64960;BMP180;51487;52.266;10.542;2022-07-31T00:45:07;100803.00;;;17.20
64960;BMP180;51487;52.266;10.542;2022-07-31T00:47:33;100800.00;;;17.30
64960;BMP180;51487;52.266;10.542;2022-07-31T00:49:59;100805.00;;;17.20
64960;BMP180;51487;52.266;10.542;2022-07-31T00:52:24;100812.00;;;17.20
64960;BMP180;51487;52.266;10.542;2022-07-31T00:54:50;100816.00;;;17.20
64960;BMP180;51487;52.266;10.542;2022-07-31T00:57:16;100812.00;;;17.10
64960;BMP180;51487;52.266;10.542;2022-07-31T00:59:41;100807.00;;;17.20
64960;BMP180;51487;52.266;10.542;2022-07-31T01:02:08;100808.00;;;17.10
64960;BMP180;51487;52.266;10.542;2022-07-31T01:04:35;100810.00;;;17.10
64960;BMP180;51487;52.266;10.542;2022-07-31T01:07:00;100810.00;;;17.10
64960;BMP180;51487;52.266;10.542;2022-07-31T01:09:26;100828.00;;;17.10
64960;BMP180;51487;52.266;10.542;2022-07-31T01:12:12;100830.00;;;17.10
64960;BMP180;51487;52.266;10.542;2022-07-31T01:14:48;100830.00;;;17.10
64960;BMP180;51487;52.266;10.542;2022-07-31T01:17:21;100830.00;;;17.20
64960;BMP180;51487;52.266;10.542;2022-07-31T01:19:49;100839.00;;;17.00
64960;BMP180;51487;52.266;10.542;2022-07-31T01:25:09;100836.00;;;17.00
64960;BMP180;51487;52.266;10.542;2022-07-31T01:30:55;100835.00;;;17.00
64960;BMP180;51487;52.266;10.542;2022-07-31T01:33:30;100824.00;;;17.00
64960;BMP180;51487;52.266;10.542;2022-07-31T01:36:01;100825.00;;;16.90
64960;BMP180;51487;52.266;10.542;2022-07-31T01:38:36;100830.00;;;16.80
64960;BMP180;51487;52.266;10.542;2022-07-31T01:41:07;100834.00;;;16.80
64960;BMP180;51487;52.266;10.542;2022-07-31T01:43:39;100828.00;;;16.80
64960;BMP180;51487;52.266;10.542;2022-07-31T01:46:12;100831.00;;;16.90
64960;BMP180;51487;52.266;10.542;2022-07-31T01:48:40;100837.00;;;16.90
64960;BMP180;51487;52.266;10.542;2022-07-31T01:51:08;100834.00;;;16.90
64960;BMP180;51487;52.266;10.542;2022-07-31T01:53:36;100830.00;;;16.90
64960;BMP180;51487;52.266;10.542;2022-07-31T01:56:03;100833.00;;;16.90
64960;BMP180;51487;52.266;10.542;2022-07-31T01:58:39;100843.00;;;16.80
64960;BMP180;51487;52.266;10.542;2022-07-31T02:01:07;100834.00;;;16.80
64960;BMP180;51487;52.266;10.542;2022-07-31T02:03:35;100833.00;;;16.90
64960;BMP180;51487;52.266;10.542;2022-07-31T02:06:02;100822.00;;;16.80
64960;BMP180;51487;52.266;10.542;2022-07-31T02:08:29;100822.00;;;16.80
64960;BMP180;51487;52.266;10.542;2022-07-31T02:10:58;100818.00;;;16.80
64960;BMP180;51487;52.266;10.542;2022-07-31T02:13:26;100823.00;;;16.80
64960;BMP180;51487;52.266;10.542;2022-07-31T02:15:55;100821.00;;;16.70
64960;BMP180;51487;52.266;10.542;2022-07-31T02:18:21;100816.00;;;16.80
64960;BMP180;51487;52.266;10.542;2022-07-31T02:20:49;100817.00;;;16.70
64960;BMP180;51487;52.266;10.542;2022-07-31T02:23:15;100817.00;;;16.80
64960;BMP180;51487;52.266;10.542;2022-07-31T02:25:42;100813.00;;;16.80
64960;BMP180;51487;52.266;10.542;2022-07-31T02:28:13;100815.00;;;16.70
64960;BMP180;51487;52.266;10.542;2022-07-31T02:30:46;100813.00;;;16.70
64960;BMP180;51487;52.266;10.542;2022-07-31T02:33:18;100819.00;;;16.70
64960;BMP180;51487;52.266;10.542;2022-07-31T02:35:50;100807.00;;;16.70
64960;BMP180;51487;52.266;10.542;2022-07-31T02:38:20;100819.00;;;16.70
64960;BMP180;51487;52.266;10.542;2022-07-31T02:40:49;100815.00;;;16.70
64960;BMP180;51487;52.266;10.542;2022-07-31T02:43:18;100821.00;;;16.70
64960;BMP180;51487;52.266;10.542;2022-07-31T02:45:44;100813.00;;;16.70
64960;BMP180;51487;52.266;10.542;2022-07-31T02:48:11;100811.00;;;16.70
64960;BMP180;51487;52.266;10.542;2022-07-31T02:50:37;100818.00;;;16.70
64960;BMP180;51487;52.266;10.542;2022-07-31T02:53:03;100816.00;;;16.70
64960;BMP180;51487;52.266;10.542;2022-07-31T02:55:29;100811.00;;;16.70
64960;BMP180;51487;52.266;10.542;2022-07-31T02:57:55;100809.00;;;16.70
64960;BMP180;51487;52.266;10.542;2022-07-31T03:00:21;100804.00;;;16.60
64960;BMP180;51487;52.266;10.542;2022-07-31T03:02:50;100804.00;;;16.60
64960;BMP180;51487;52.266;10.542;2022-07-31T03:05:20;100810.00;;;16.60
64960;BMP180;51487;52.266;10.542;2022-07-31T03:07:46;100804.00;;;16.50
64960;BMP180;51487;52.266;10.542;2022-07-31T03:10:12;100800.00;;;16.50
64960;BMP180;51487;52.266;10.542;2022-07-31T03:12:44;100795.00;;;16.50
64960;BMP180;51487;52.266;10.542;2022-07-31T03:15:14;100790.00;;;16.50
64960;BMP180;51487;52.266;10.542;2022-07-31T03:17:43;100792.00;;;16.50
64960;BMP180;51487;52.266;10.542;2022-07-31T03:20:10;100794.00;;;16.40
64960;BMP180;51487;52.266;10.542;2022-07-31T03:22:38;100794.00;;;16.40
64960;BMP180;51487;52.266;10.542;2022-07-31T03:25:04;100797.00;;;16.50
64960;BMP180;51487;52.266;10.542;2022-07-31T03:27:30;100794.00;;;16.50
64960;BMP180;51487;52.266;10.542;2022-07-31T03:29:56;100787.00;;;16.50
64960;BMP180;51487;52.266;10.542;2022-07-31T03:32:22;100790.00;;;16.50
64960;BMP180;51487;52.266;10.542;2022-07-31T03:34:47;100794.00;;;16.50
64960;BMP180;51487;52.266;10.542;2022-07-31T03:37:13;100792.00;;;16.50
64960;BMP180;51487;52.266;10.542;2022-07-31T03:39:39;100796.00;;;16.50
64960;BMP180;51487;52.266;10.542;2022-07-31T03:42:07;100791.00;;;16.50
64960;BMP180;51487;52.266;10.542;2022-07-31T03:44:34;100793.00;;;16.50
64960;BMP180;51487;52.266;10.542;2022-07-31T03:47:02;100793.00;;;16.30
64960;BMP180;51487;52.266;10.542;2022-07-31T03:49:29;100788.00;;;16.30
64960;BMP180;51487;52.266;10.542;2022-07-31T03:51:56;100790.00;;;16.30
64960;BMP180;51487;52.266;10.542;2022-07-31T03:54:22;100787.00;;;16.30
64960;BMP180;51487;52.266;10.542;2022-07-31T03:56:50;100790.00;;;16.30
64960;BMP180;51487;52.266;10.542;2022-07-31T03:59:17;100786.00;;;16.20
64960;BMP180;51487;52.266;10.542;2022-07-31T04:01:44;100780.00;;;16.20
64960;BMP180;51487;52.266;10.542;2022-07-31T04:04:11;100783.00;;;16.20
64960;BMP180;51487;52.266;10.542;2022-07-31T04:06:38;100788.00;;;16.20
64960;BMP180;51487;52.266;10.542;2022-07-31T04:09:05;100789.00;;;16.20
64960;BMP180;51487;52.266;10.542;2022-07-31T04:11:30;100795.00;;;16.20
64960;BMP180;51487;52.266;10.542;2022-07-31T04:13:56;100797.00;;;16.20
64960;BMP180;51487;52.266;10.542;2022-07-31T04:16:22;100807.00;;;16.20
64960;BMP180;51487;52.266;10.542;2022-07-31T04:18:47;100801.00;;;16.20
64960;BMP180;51487;52.266;10.542;2022-07-31T04:21:13;100806.00;;;16.20
64960;BMP180;51487;52.266;10.542;2022-07-31T04:23:39;100802.00;;;16.20
64960;BMP180;51487;52.266;10.542;2022-07-31T04:26:04;100795.00;;;16.20
64960;BMP180;51487;52.266;10.542;2022-07-31T04:28:30;100793.00;;;16.20
64960;BMP180;51487;52.266;10.542;2022-07-31T04:30:56;100802.00;;;16.30
64960;BMP180;51487;52.266;10.542;2022-07-31T04:33:21;100797.00;;;16.40
64960;BMP180;51487;52.266;10.542;2022-07-31T04:35:47;100801.00;;;16.40
64960;BMP180;51487;52.266;10.542;2022-07-31T04:38:12;100801.00;;;16.50
64960;BMP180;51487;52.266;10.542;2022-07-31T04:40:41;100788.00;;;16.50
64960;BMP180;51487;52.266;10.542;2022-07-31T04:43:07;100793.00;;;16.60
64960;BMP180;51487;52.266;10.542;2022-07-31T04:45:32;100781.00;;;16.70
64960;BMP180;51487;52.266;10.542;2022-07-31T04:47:58;100787.00;;;16.80
64960;BMP180;51487;52.266;10.542;2022-07-31T04:50:25;100785.00;;;16.80
64960;BMP180;51487;52.266;10.542;2022-07-31T04:52:51;100785.00;;;16.90
64960;BMP180;51487;52.266;10.542;2022-07-31T04:55:16;100788.00;;;16.90
64960;BMP180;51487;52.266;10.542;2022-07-31T04:57:42;100797.00;;;16.90
64960;BMP180;51487;52.266;10.542;2022-07-31T05:00:07;100795.00;;;16.90
64960;BMP180;51487;52.266;10.542;2022-07-31T05:02:34;100790.00;;;16.90
64960;BMP180;51487;52.266;10.542;2022-07-31T05:05:00;100793.00;;;17.00
64960;BMP180;51487;52.266;10.542;2022-07-31T05:07:26;100797.00;;;17.10
64960;BMP180;51487;52.266;10.542;2022-07-31T05:09:52;100795.00;;;17.20
64960;BMP180;51487;52.266;10.542;2022-07-31T05:12:18;100795.00;;;17.30
64960;BMP180;51487;52.266;10.542;2022-07-31T05:14:43;100800.00;;;17.40
64960;BMP180;51487;52.266;10.542;2022-07-31T05:17:09;100797.00;;;17.50
64960;BMP180;51487;52.266;10.542;2022-07-31T05:19:34;100805.00;;;17.60
64960;BMP180;51487;52.266;10.542;2022-07-31T05:22:00;100797.00;;;17.60
64960;BMP180;51487;52.266;10.542;2022-07-31T05:24:25;100803.00;;;17.60
64960;BMP180;51487;52.266;10.542;2022-07-31T05:26:51;100806.00;;;17.60
64960;BMP180;51487;52.266;10.542;2022-07-31T05:29:16;100799.00;;;17.60
64960;BMP180;51487;52.266;10.542;2022-07-31T05:31:43;100804.00;;;17.60
64960;BMP180;51487;52.266;10.542;2022-07-31T05:34:08;100808.00;;;17.80
64960;BMP180;51487;52.266;10.542;2022-07-31T05:36:34;100812.00;;;17.80
64960;BMP180;51487;52.266;10.542;2022-07-31T05:38:59;100827.00;;;17.90
64960;BMP180;51487;52.266;10.542;2022-07-31T05:41:25;100810.00;;;18.00
64960;BMP180;51487;52.266;10.542;2022-07-31T05:43:51;100805.00;;;18.10
64960;BMP180;51487;52.266;10.542;2022-07-31T05:46:16;100797.00;;;18.10
64960;BMP180;51487;52.266;10.542;2022-07-31T05:48:43;100795.00;;;18.20
64960;BMP180;51487;52.266;10.542;2022-07-31T05:51:10;100793.00;;;18.30
64960;BMP180;51487;52.266;10.542;2022-07-31T05:53:39;100786.00;;;18.40
64960;BMP180;51487;52.266;10.542;2022-07-31T05:56:05;100774.00;;;18.40
64960;BMP180;51487;52.266;10.542;2022-07-31T05:58:32;100778.00;;;18.40
64960;BMP180;51487;52.266;10.542;2022-07-31T06:00:58;100776.00;;;18.40
64960;BMP180;51487;52.266;10.542;2022-07-31T06:03:25;100784.00;;;18.40
64960;BMP180;51487;52.266;10.542;2022-07-31T06:05:55;100783.00;;;18.40
64960;BMP180;51487;52.266;10.542;2022-07-31T06:08:21;100782.00;;;18.40
64960;BMP180;51487;52.266;10.542;2022-07-31T06:10:47;100783.00;;;18.50
64960;BMP180;51487;52.266;10.542;2022-07-31T06:13:13;100784.00;;;18.50
64960;BMP180;51487;52.266;10.542;2022-07-31T06:15:42;100780.00;;;18.60
64960;BMP180;51487;52.266;10.542;2022-07-31T06:18:08;100786.00;;;18.60
64960;BMP180;51487;52.266;10.542;2022-07-31T06:20:33;100777.00;;;18.60
64960;BMP180;51487;52.266;10.542;2022-07-31T06:22:59;100783.00;;;18.70
64960;BMP180;51487;52.266;10.542;2022-07-31T06:25:25;100788.00;;;18.70
64960;BMP180;51487;52.266;10.542;2022-07-31T06:27:50;100783.00;;;18.70
64960;BMP180;51487;52.266;10.542;2022-07-31T06:30:16;100776.00;;;18.80
64960;BMP180;51487;52.266;10.542;2022-07-31T06:32:42;100779.00;;;18.80
64960;BMP180;51487;52.266;10.542;2022-07-31T06:35:08;100774.00;;;18.90
64960;BMP180;51487;52.266;10.542;2022-07-31T06:37:34;100779.00;;;19.00
64960;BMP180;51487;52.266;10.542;2022-07-31T06:40:00;100769.00;;;19.10
64960;BMP180;51487;52.266;10.542;2022-07-31T06:42:26;100770.00;;;19.10
64960;BMP180;51487;52.266;10.542;2022-07-31T06:44:52;100771.00;;;19.30
64960;BMP180;51487;52.266;10.542;2022-07-31T06:47:20;100775.00;;;19.30
64960;BMP180;51487;52.266;10.542;2022-07-31T06:49:48;100780.00;;;19.30
64960;BMP180;51487;52.266;10.542;2022-07-31T06:52:13;100778.00;;;19.10
64960;BMP180;51487;52.266;10.542;2022-07-31T06:54:40;100773.00;;;19.20
64960;BMP180;51487;52.266;10.542;2022-07-31T06:57:08;100766.00;;;19.30
64960;BMP180;51487;52.266;10.542;2022-07-31T06:59:34;100758.00;;;19.30
64960;BMP180;51487;52.266;10.542;2022-07-31T07:01:59;100764.00;;;19.40
64960;BMP180;51487;52.266;10.542;2022-07-31T07:04:25;100767.00;;;19.50
64960;BMP180;51487;52.266;10.542;2022-07-31T07:06:50;100765.00;;;19.60
64960;BMP180;51487;52.266;10.542;2022-07-31T07:09:16;100766.00;;;19.60
64960;BMP180;51487;52.266;10.542;2022-07-31T07:11:41;100765.00;;;19.70
64960;BMP180;51487;52.266;10.542;2022-07-31T07:14:07;100763.00;;;19.60
64960;BMP180;51487;52.266;10.542;2022-07-31T07:16:33;100772.00;;;19.60
64960;BMP180;51487;52.266;10.542;2022-07-31T07:18:58;100765.00;;;19.70
64960;BMP180;51487;52.266;10.542;2022-07-31T07:21:24;100772.00;;;19.70
64960;BMP180;51487;52.266;10.542;2022-07-31T07:23:50;100766.00;;;19.90
64960;BMP180;51487;52.266;10.542;2022-07-31T07:26:15;100771.00;;;20.00
64960;BMP180;51487;52.266;10.542;2022-07-31T07:28:41;100757.00;;;20.00
64960;BMP180;51487;52.266;10.542;2022-07-31T07:31:06;100764.00;;;20.20
64960;BMP180;51487;52.266;10.542;2022-07-31T07:33:32;100756.00;;;20.40
64960;BMP180;51487;52.266;10.542;2022-07-31T07:35:58;100759.00;;;20.50
64960;BMP180;51487;52.266;10.542;2022-07-31T07:38:23;100756.00;;;20.40
64960;BMP180;51487;52.266;10.542;2022-07-31T07:40:50;100754.00;;;20.50
64960;BMP180;51487;52.266;10.542;2022-07-31T07:43:16;100758.00;;;20.60
64960;BMP180;51487;52.266;10.542;2022-07-31T07:45:43;100758.00;;;20.70
64960;BMP180;51487;52.266;10.542;2022-07-31T07:48:08;100745.00;;;20.80
64960;BMP180;51487;52.266;10.542;2022-07-31T07:50:34;100746.00;;;20.90
64960;BMP180;51487;52.266;10.542;2022-07-31T07:52:59;100756.00;;;20.90
64960;BMP180;51487;52.266;10.542;2022-07-31T07:55:25;100750.00;;;21.00
64960;BMP180;51487;52.266;10.542;2022-07-31T07:57:51;100750.00;;;21.00
64960;BMP180;51487;52.266;10.542;2022-07-31T08:00:17;100761.00;;;21.10
64960;BMP180;51487;52.266;10.542;2022-07-31T08:02:44;100748.00;;;21.10
64960;BMP180;51487;52.266;10.542;2022-07-31T08:05:11;100747.00;;;21.00
64960;BMP180;51487;52.266;10.542;2022-07-31T08:07:38;100749.00;;;20.90
64960;BMP180;51487;52.266;10.542;2022-07-31T08:10:05;100741.00;;;21.00
64960;BMP180;51487;52.266;10.542;2022-07-31T08:12:32;100755.00;;;20.90
64960;BMP180;51487;52.266;10.542;2022-07-31T08:14:58;100751.00;;;21.00
64960;BMP180;51487;52.266;10.542;2022-07-31T08:17:24;100751.00;;;20.90
64960;BMP180;51487;52.266;10.542;2022-07-31T08:19:49;100749.00;;;20.80
64960;BMP180;51487;52.266;10.542;2022-07-31T08:22:16;100743.00;;;20.90
64960;BMP180;51487;52.266;10.542;2022-07-31T08:24:42;100751.00;;;21.00
64960;BMP180;51487;52.266;10.542;2022-07-31T08:27:07;100750.00;;;21.20
64960;BMP180;51487;52.266;10.542;2022-07-31T08:29:56;100741.00;;;21.30
64960;BMP180;51487;52.266;10.542;2022-07-31T08:32:24;100744.00;;;21.30
64960;BMP180;51487;52.266;10.542;2022-07-31T08:34:51;100743.00;;;21.40
64960;BMP180;51487;52.266;10.542;2022-07-31T08:37:18;100748.00;;;21.50
64960;BMP180;51487;52.266;10.542;2022-07-31T08:39:45;100741.00;;;21.60
64960;BMP180;51487;52.266;10.542;2022-07-31T08:42:12;100746.00;;;21.60
64960;BMP180;51487;52.266;10.542;2022-07-31T08:44:39;100741.00;;;21.30
64960;BMP180;51487;52.266;10.542;2022-07-31T08:47:07;100730.00;;;21.50
64960;BMP180;51487;52.266;10.542;2022-07-31T08:49:43;100732.00;;;21.60
64960;BMP180;51487;52.266;10.542;2022-07-31T08:52:30;100743.00;;;21.70
64960;BMP180;51487;52.266;10.542;2022-07-31T08:54:58;100737.00;;;21.90
64960;BMP180;51487;52.266;10.542;2022-07-31T08:57:25;100731.00;;;21.90
64960;BMP180;51487;52.266;10.542;2022-07-31T08:59:51;100728.00;;;22.00
64960;BMP180;51487;52.266;10.542;2022-07-31T09:02:17;100723.00;;;22.30
64960;BMP180;51487;52.266;10.542;2022-07-31T09:04:43;100716.00;;;22.30
64960;BMP180;51487;52.266;10.542;2022-07-31T09:07:13;100716.00;;;22.40
64960;BMP180;51487;52.266;10.542;2022-07-31T09:09:44;100716.00;;;22.50
64960;BMP180;51487;52.266;10.542;2022-07-31T09:12:11;100713.00;;;22.60
64960;BMP180;51487;52.266;10.542;2022-07-31T09:14:37;100708.00;;;22.60
64960;BMP180;51487;52.266;10.542;2022-07-31T09:17:03;100702.00;;;22.80
64960;BMP180;51487;52.266;10.542;2022-07-31T09:19:41;100710.00;;;23.10
64960;BMP180;51487;52.266;10.542;2022-07-31T09:22:26;100700.00;;;23.10
64960;BMP180;51487;52.266;10.542;2022-07-31T09:24:53;100704.00;;;23.20
64960;BMP180;51487;52.266;10.542;2022-07-31T09:27:29;100702.00;;;23.20
64960;BMP180;51487;52.266;10.542;2022-07-31T09:29:55;100691.00;;;23.40
64960;BMP180;51487;52.266;10.542;2022-07-31T09:32:21;100690.00;;;23.40
64960;BMP180;51487;52.266;10.542;2022-07-31T09:34:47;100684.00;;;23.30
64960;BMP180;51487;52.266;10.542;2022-07-31T09:37:18;100681.00;;;23.40
64960;BMP180;51487;52.266;10.542;2022-07-31T09:39:53;100682.00;;;23.30
64960;BMP180;51487;52.266;10.542;2022-07-31T09:42:21;100682.00;;;23.30
64960;BMP180;51487;52.266;10.542;2022-07-31T09:44:49;100683.00;;;23.30
64960;BMP180;51487;52.266;10.542;2022-07-31T09:49:59;100677.00;;;23.20
64960;BMP180;51487;52.266;10.542;2022-07-31T09:52:28;100676.00;;;23.40
64960;BMP180;51487;52.266;10.542;2022-07-31T09:55:04;100675.00;;;23.30
64960;BMP180;51487;52.266;10.542;2022-07-31T09:57:30;100667.00;;;23.50
64960;BMP180;51487;52.266;10.542;2022-07-31T09:59:56;100673.00;;;23.40
64960;BMP180;51487;52.266;10.542;2022-07-31T10:02:23;100669.00;;;23.50
64960;BMP180;51487;52.266;10.542;2022-07-31T10:04:55;100661.00;;;23.50
64960;BMP180;51487;52.266;10.542;2022-07-31T10:07:25;100664.00;;;23.60
64960;BMP180;51487;52.266;10.542;2022-07-31T10:09:55;100661.00;;;23.80
64960;BMP180;51487;52.266;10.542;2022-07-31T10:12:27;100664.00;;;23.90
64960;BMP180;51487;52.266;10.542;2022-07-31T10:14:55;100665.00;;;24.10
64960;BMP180;51487;52.266;10.542;2022-07-31T10:17:27;100664.00;;;24.20
64960;BMP180;51487;52.266;10.542;2022-07-31T10:19:57;100659.00;;;24.40
64960;BMP180;51487;52.266;10.542;2022-07-31T10:22:31;100656.00;;;24.50
64960;BMP180;51487;52.266;10.542;2022-07-31T10:25:08;100654.00;;;24.60
64960;BMP180;51487;52.266;10.542;2022-07-31T10:27:38;100645.00;;;24.50
64960;BMP180;51487;52.266;10.542;2022-07-31T10:30:06;100645.00;;;24.50
64960;BMP180;51487;52.266;10.542;2022-07-31T10:32:32;100648.00;;;24.50
64960;BMP180;51487;52.266;10.542;2022-07-31T10:34:58;100646.00;;;24.70
64960;BMP180;51487;52.266;10.542;2022-07-31T10:40:42;100654.00;;;24.60
64960;BMP180;51487;52.266;10.542;2022-07-31T10:43:22;100632.00;;;24.50
64960;BMP180;51487;52.266;10.542;2022-07-31T10:45:52;100643.00;;;24.60
64960;BMP180;51487;52.266;10.542;2022-07-31T10:48:20;100641.00;;;24.50
64960;BMP180;51487;52.266;10.542;2022-07-31T10:50:47;100633.00;;;24.40
64960;BMP180;51487;52.266;10.542;2022-07-31T10:53:25;100626.00;;;24.20
64960;BMP180;51487;52.266;10.542;2022-07-31T10:56:01;100627.00;;;24.00
64960;BMP180;51487;52.266;10.542;2022-07-31T10:58:28;100625.00;;;23.80
64960;BMP180;51487;52.266;10.542;2022-07-31T11:01:07;100626.00;;;23.80
64960;BMP180;51487;52.266;10.542;2022-07-31T11:03:42;100624.00;;;23.80
64960;BMP180;51487;52.266;10.542;2022-07-31T11:06:12;100630.00;;;24.00
64960;BMP180;51487;52.266;10.542;2022-07-31T11:08:46;100633.00;;;24.10
64960;BMP180;51487;52.266;10.542;2022-07-31T11:11:17;100630.00;;;24.10
64960;BMP180;51487;52.266;10.542;2022-07-31T11:13:53;100627.00;;;24.10
64960;BMP180;51487;52.266;10.542;2022-07-31T11:16:23;100626.00;;;24.10
64960;BMP180;51487;52.266;10.542;2022-07-31T11:21:39;100616.00;;;23.90
64960;BMP180;51487;52.266;10.542;2022-07-31T11:24:20;100618.00;;;24.00
64960;BMP180;51487;52.266;10.542;2022-07-31T11:26:52;100613.00;;;24.10
64960;BMP180;51487;52.266;10.542;2022-07-31T11:34:29;100598.00;;;24.20
64960;BMP180;51487;52.266;10.542;2022-07-31T11:39:50;100591.00;;;24.40
64960;BMP180;51487;52.266;10.542;2022-07-31T11:42:18;100579.00;;;24.50
64960;BMP180;51487;52.266;10.542;2022-07-31T11:44:45;100581.00;;;24.70
64960;BMP180;51487;52.266;10.542;2022-07-31T11:47:10;100570.00;;;24.90
64960;BMP180;51487;52.266;10.542;2022-07-31T11:49:36;100580.00;;;25.00
64960;BMP180;51487;52.266;10.542;2022-07-31T11:52:04;100582.00;;;24.80
64960;BMP180;51487;52.266;10.542;2022-07-31T11:54:34;100572.00;;;24.90
64960;BMP180;51487;52.266;10.542;2022-07-31T11:57:00;100571.00;;;24.90
64960;BMP180;51487;52.266;10.542;2022-07-31T11:59:31;100574.00;;;25.10
64960;BMP180;51487;52.266;10.542;2022-07-31T12:02:06;100575.00;;;25.20
64960;BMP180;51487;52.266;10.542;2022-07-31T12:04:38;100575.00;;;25.30
64960;BMP180;51487;52.266;10.542;2022-07-31T12:07:06;100571.00;;;25.30
64960;BMP180;51487;52.266;10.542;2022-07-31T12:09:34;100561.00;;;25.40
64960;BMP180;51487;52.266;10.542;2022-07-31T12:12:03;100560.00;;;25.60
64960;BMP180;51487;52.266;10.542;2022-07-31T12:14:37;100560.00;;;25.60
64960;BMP180;51487;52.266;10.542;2022-07-31T12:17:05;100555.00;;;25.80
64960;BMP180;51487;52.266;10.542;2022-07-31T12:19:35;100553.00;;;25.90
64960;BMP180;51487;52.266;10.542;2022-07-31T12:22:12;100543.00;;;26.00
64960;BMP180;51487;52.266;10.542;2022-07-31T12:24:39;100542.00;;;25.90
64960;BMP180;51487;52.266;10.542;2022-07-31T12:27:05;100544.00;;;25.70
64960;BMP180;51487;52.266;10.542;2022-07-31T12:29:33;100543.00;;;25.70
64960;BMP180;51487;52.266;10.542;2022-07-31T12:32:00;100543.00;;;25.20
64960;BMP180;51487;52.266;10.542;2022-07-31T12:42:23;100531.00;;;25.60
64960;BMP180;51487;52.266;10.542;2022-07-31T12:44:51;100534.00;;;25.60
64960;BMP180;51487;52.266;10.542;2022-07-31T12:47:22;100520.00;;;25.40
64960;BMP180;51487;52.266;10.542;2022-07-31T12:49:48;100522.00;;;25.40
64960;BMP180;51487;52.266;10.542;2022-07-31T12:52:14;100518.00;;;25.50
64960;BMP180;51487;52.266;10.542;2022-07-31T12:54:40;100509.00;;;25.20
64960;BMP180;51487;52.266;10.542;2022-07-31T12:57:06;100503.00;;;25.10
64960;BMP180;51487;52.266;10.542;2022-07-31T12:59:31;100505.00;;;25.10
64960;BMP180;51487;52.266;10.542;2022-07-31T13:01:57;100495.00;;;25.20
64960;BMP180;51487;52.266;10.542;2022-07-31T13:04:22;100504.00;;;25.40
64960;BMP180;51487;52.266;10.542;2022-07-31T13:06:48;100505.00;;;25.30
64960;BMP180;51487;52.266;10.542;2022-07-31T13:09:15;100495.00;;;25.40
64960;BMP180;51487;52.266;10.542;2022-07-31T13:11:42;100495.00;;;25.40
64960;BMP180;51487;52.266;10.542;2022-07-31T13:14:08;100497.00;;;25.40
64960;BMP180;51487;52.266;10.542;2022-07-31T13:16:33;100484.00;;;25.40
64960;BMP180;51487;52.266;10.542;2022-07-31T13:18:59;100481.00;;;25.40
64960;BMP180;51487;52.266;10.542;2022-07-31T13:21:24;100479.00;;;25.50
64960;BMP180;51487;52.266;10.542;2022-07-31T13:23:53;100476.00;;;25.50
64960;BMP180;51487;52.266;10.542;2022-07-31T13:26:19;100476.00;;;25.70
64960;BMP180;51487;52.266;10.542;2022-07-31T13:28:45;100470.00;;;25.70
64960;BMP180;51487;52.266;10.542;2022-07-31T13:31:11;100463.00;;;25.90
64960;BMP180;51487;52.266;10.542;2022-07-31T13:33:36;100465.00;;;25.80
64960;BMP180;51487;52.266;10.542;2022-07-31T13:36:03;100452.00;;;25.90
64960;BMP180;51487;52.266;10.542;2022-07-31T13:38:30;100453.00;;;25.90
64960;BMP180;51487;52.266;10.542;2022-07-31T13:40:56;100455.00;;;26.00
64960;BMP180;51487;52.266;10.542;2022-07-31T13:43:40;100451.00;;;26.10
64960;BMP180;51487;52.266;10.542;2022-07-31T13:46:05;100459.00;;;26.00
64960;BMP180;51487;52.266;10.542;2022-07-31T13:48:31;100450.00;;;26.00
64960;BMP180;51487;52.266;10.542;2022-07-31T13:50:57;100450.00;;;26.00
64960;BMP180;51487;52.266;10.542;2022-07-31T13:53:23;100451.00;;;26.00
64960;BMP180;51487;52.266;10.542;2022-07-31T13:55:48;100443.00;;;26.10
64960;BMP180;51487;52.266;10.542;2022-07-31T13:58:14;100442.00;;;26.10
64960;BMP180;51487;52.266;10.542;2022-07-31T14:00:39;100440.00;;;26.10
64960;BMP180;51487;52.266;10.542;2022-07-31T14:03:05;100439.00;;;26.10
64960;BMP180;51487;52.266;10.542;2022-07-31T14:05:31;100431.00;;;26.00
64960;BMP180;51487;52.266;10.542;2022-07-31T14:07:56;100433.00;;;26.00
64960;BMP180;51487;52.266;10.542;2022-07-31T14:10:22;100433.00;;;26.10
64960;BMP180;51487;52.266;10.542;2022-07-31T14:12:48;100431.00;;;26.10
64960;BMP180;51487;52.266;10.542;2022-07-31T14:15:14;100432.00;;;26.30
64960;BMP180;51487;52.266;10.542;2022-07-31T14:17:42;100430.00;;;26.30